House, NM (88121)

7:16 PM MDT on July 28, 2014 (GMT -0600)
Melrose Gunnery Range (K4MR) Elev 4350 ft | 34.30 °N, 103.80 °W | Change Station
Active Advisory: Areal Flood Advisory

Current weather conditions updated 20 minutes ago

Rain Showers
Showers Rain
69 °F
Feels Like 69 °F
N
4
Wind Variable Wind from SE

Tomorrow is forecast to be nearly the same temperature as today. Scattered thunderstorms possible.

Today
High -- | Low -- °F
--% Chance of Precip.
Yesterday
High -- | Low -- °F
Precip. -- in
6:02 AM 8:01 PM
Waxing Crescent, 4% visible
Pressure 30.14 in
Visibility 6.0 miles
Clouds Clear
Dew Point 65 °F
Humidity 87%
Rainfall 0.67 in
Snow Depth Not available.
UV 1 out of 12
Pollen 5.00 out of 12
Air Quality Not available.
Flu Activity Not available.
METAR K4MR 290056Z AUTO 13003KT 6SM SHRA CLR 21/19 A3029 RMK AO2 PK WND 21027/17 LTG DSNT N-NE AND S SLP207 P0026 T02080185

More Conditions Fewer Conditions

Pressure 30.14 in
Visibility 6.0 miles
Clouds Clear
Dew Point 65 °F
Humidity 87%
Rainfall 0.67 in
Snow Depth Not available.
UV 1 out of 12
Pollen 5.00 out of 12
Air Quality Not available.
Flu Activity Not available.
METAR K4MR 290056Z AUTO 13003KT 6SM SHRA CLR 21/19 A3029 RMK AO2 PK WND 21027/17 LTG DSNT N-NE AND S SLP207 P0026 T02080185

More Conditions Fewer Conditions

Nowcast | as of 6:51 PM MDT on July 28, 2014

Through early evening...a clusters of showers and thunderstorms with heavy rain will continue to shift eastward from De Baca County into Curry County. Isolated showers and storms will continue to be possible elsewhere across the east central and southeast plains. A few of the stronger stronger storms will be capable of producing torrential downpours with rain at rates near 1 inch in just a half hour. Wind gusts to 50 mph and dangerous cloud to ground lightning will also be possible.

×

10-Day Weather Forecast

Almanac

Astronomy

Jul. 28, 2014 Rise Set
Actual Time 6:02 AM MDT 8:01 PM MDT
Civil Twilight 5:35 AM MDT 8:29 PM MDT
Nautical Twilight 5:01 AM MDT 9:03 PM MDT
Astronomical Twilight 4:24 AM MDT 9:39 PM MDT
Moon 7:40 AM MDT (7/28) 8:51 PM MDT (7/28)
Length of Visible Light 14h 54m
Length of Day
13h 58m
Tomorrow will be 1m 32s shorter.
Waxing Crescent, 4% of the Moon is Illuminated
Today
Waxing Crescent
Aug 3
First Quarter
Aug 10
Full
Aug 17
Last Quarter
Aug 25
New

Today's Extremes

State Highs State Lows

Community

WunderPhotos

Upload Photos

1,738,579 photos uploaded!

WunderBlogs® & News

Nearby

Snow Depth

Station Depth Elevation
Wesner Springs 2 in 11120 ft
Santa Fe 1 in 11445 ft
Gallegos Peak 0 in 9800 ft
Sierra Blanca 1 in 10280 ft
Red River Pass #2 0 in 9850 ft

Earthquake Activity

City Distance Mag. Time & Date
No recent earthquake activity has been reported nearby.
Minimum magnitude displayed is 2.5.

Coastal Water Temperatures

Place Temperature
No Stations Reporting

Nearby Weather Stations

There are no personal weather stations in this area.